logo
Search for airport 
image banner adimage banner adimage banner ad
image banner ad

LFH377 - Toulon Sainte Anne Hopital Militaire

Located in , France

ICAO - , IATA -

Data provided by Airmate  

General information

Coordinates: N43°8'0" E5°55'49"
Elevation is 226 feet MSL.
Magnetic variation is 2.09° East
View others Airports in Provence-Alpes-Côte-d'Azur

Operational data

Special qualification required
Current time UTC:
Current local time:
Weather at : LFTH - Hyeres Le Palyvestre ( 18 km )
METAR: LFTH 171230Z AUTO 20008KT CAVOK 30/17 Q1015 NOSIG
TAF: TAF LFTH 170800Z 1709/1809 14005KT CAVOK BECMG 1710/1712 22010KT TEMPO 1715/1718 25015G25KT BECMG 1718/1720 VRB03KT
View NOTAMs / SUP AIP / TFR affecting this airport [VIEW]
Communications frequencies: [VIEW]

Runways:

Airport contact information

Address: France

Satellite view of LFH377